createdAt,value
2023-02-24T00:01:56.837Z,55.17
2023-02-24T00:04:25.817Z,49.20
2023-02-24T00:06:52.603Z,44.10
2023-02-24T00:09:22.754Z,44.33
2023-02-24T00:12:09.668Z,35.50
2023-02-24T00:14:38.643Z,30.17
2023-02-24T00:17:09.362Z,27.23
2023-02-24T00:19:37.220Z,24.77
2023-02-24T00:22:07.034Z,24.47
2023-02-24T00:24:34.602Z,24.27
2023-02-24T00:27:07.449Z,24.17
2023-02-24T00:29:37.463Z,21.80
2023-02-24T00:32:07.889Z,22.33
2023-02-24T00:34:36.712Z,17.83
2023-02-24T00:37:06.723Z,23.37
2023-02-24T00:39:34.470Z,26.10
2023-02-24T00:42:06.935Z,24.80
2023-02-24T00:44:38.041Z,23.63
2023-02-24T00:47:06.704Z,30.43
2023-02-24T00:49:35.760Z,25.13
2023-02-24T00:52:06.524Z,26.57
2023-02-24T00:54:36.729Z,28.30
2023-02-24T00:57:03.965Z,28.30
2023-02-24T00:59:30.750Z,33.70
2023-02-24T01:01:57.502Z,35.80
2023-02-24T01:04:24.272Z,31.57
2023-02-24T01:07:00.147Z,33.13
2023-02-24T01:09:30.006Z,30.33
2023-02-24T01:12:15.805Z,29.53
2023-02-24T01:14:48.214Z,29.93
2023-02-24T01:17:16.086Z,32.37
2023-02-24T01:19:44.264Z,31.90
2023-02-24T01:22:14.936Z,29.80
2023-02-24T01:24:43.326Z,27.40
2023-02-24T01:27:12.968Z,33.73
2023-02-24T01:29:40.080Z,33.67
2023-02-24T01:32:08.370Z,32.77
2023-02-24T01:34:35.213Z,36.53
2023-02-24T01:37:02.110Z,36.07
2023-02-24T01:39:28.935Z,40.33
2023-02-24T01:41:55.720Z,31.13
2023-02-24T01:44:22.805Z,29.73
2023-02-24T01:46:54.263Z,30.50
2023-02-24T01:49:53.982Z,36.73
2023-02-24T01:52:24.426Z,31.90
2023-02-24T01:55:01.088Z,33.53
2023-02-24T01:57:31.236Z,32.80
2023-02-24T02:00:11.138Z,33.43
2023-02-24T02:02:42.280Z,34.07
2023-02-24T02:05:10.416Z,32.40
2023-02-24T02:07:40.009Z,31.70
2023-02-24T02:10:09.257Z,29.60
2023-02-24T02:12:43.989Z,29.33
2023-02-24T02:15:13.500Z,34.83
2023-02-24T02:18:25.238Z,32.27
2023-02-24T02:21:36.190Z,26.17
2023-02-24T02:24:24.633Z,35.53
2023-02-24T02:27:06.774Z,31.77
2023-02-24T02:29:48.426Z,34.33
2023-02-24T02:32:52.272Z,36.37
2023-02-24T02:35:26.598Z,30.30
2023-02-24T02:38:04.144Z,30.50
2023-02-24T02:40:44.005Z,34.23
2023-02-24T02:43:17.111Z,36.50
2023-02-24T02:45:57.543Z,30.20
2023-02-24T02:48:54.060Z,35.90
2023-02-24T02:51:44.076Z,31.13
2023-02-24T02:54:32.120Z,32.30
2023-02-24T02:57:27.044Z,32.70
2023-02-24T03:00:21.315Z,31.93
2023-02-24T03:02:52.283Z,29.40
2023-02-24T03:05:29.495Z,34.43
2023-02-24T03:07:58.979Z,28.87
2023-02-24T03:10:28.877Z,37.93
2023-02-24T03:13:03.002Z,33.63
2023-02-24T03:15:32.819Z,37.13
2023-02-24T03:18:10.268Z,38.97
2023-02-24T03:20:42.870Z,38.30
2023-02-24T03:23:16.790Z,35.90
2023-02-24T03:25:53.606Z,42.40
2023-02-24T03:28:35.417Z,37.07
2023-02-24T03:31:14.287Z,38.70
2023-02-24T03:34:12.044Z,36.27
2023-02-24T03:36:39.258Z,40.93
2023-02-24T03:39:11.128Z,38.97
2023-02-24T03:41:57.417Z,41.70
2023-02-24T03:44:26.948Z,39.67
2023-02-24T03:46:55.697Z,40.77
2023-02-24T03:49:25.155Z,41.67
2023-02-24T03:52:08.725Z,34.80
2023-02-24T03:54:54.856Z,38.77
2023-02-24T03:57:54.758Z,43.40
2023-02-24T04:00:35.073Z,47.70
2023-02-24T04:03:06.832Z,34.40
2023-02-24T04:05:49.855Z,40.00
2023-02-24T04:08:20.201Z,42.50
2023-02-24T04:11:05.608Z,36.17
2023-02-24T04:13:55.892Z,38.73
2023-02-24T04:16:36.281Z,33.23
2023-02-24T04:19:09.428Z,29.27
2023-02-24T04:21:37.633Z,25.87
2023-02-24T04:24:07.049Z,24.90
2023-02-24T04:26:36.617Z,23.43
2023-02-24T04:29:03.732Z,24.10
2023-02-24T04:31:31.695Z,16.37
2023-02-24T04:34:00.236Z,17.63
2023-02-24T04:36:26.920Z,15.17
2023-02-24T04:38:54.202Z,16.57
2023-02-24T04:41:21.514Z,12.40
2023-02-24T04:43:51.869Z,16.80
2023-02-24T04:46:19.930Z,16.83
2023-02-24T04:48:46.665Z,18.63
2023-02-24T04:51:13.796Z,17.70
2023-02-24T04:53:40.771Z,18.73
2023-02-24T04:56:09.038Z,22.73
2023-02-24T04:58:38.359Z,21.37
2023-02-24T05:01:11.681Z,21.23
2023-02-24T05:03:42.246Z,15.73
2023-02-24T05:06:17.112Z,14.83
2023-02-24T05:08:44.281Z,15.03
2023-02-24T05:11:19.103Z,17.97
2023-02-24T05:13:46.232Z,18.40
2023-02-24T05:16:16.078Z,19.03
2023-02-24T05:18:44.425Z,27.67
2023-02-24T05:21:35.290Z,21.20
2023-02-24T05:24:11.224Z,22.03
2023-02-24T05:26:41.721Z,25.67
2023-02-24T05:29:10.906Z,22.77
2023-02-24T05:31:37.769Z,29.60
2023-02-24T05:34:07.600Z,22.03
2023-02-24T05:36:40.532Z,29.20
2023-02-24T05:39:11.916Z,21.43
2023-02-24T05:41:41.824Z,27.00
2023-02-24T05:44:16.965Z,28.33
2023-02-24T05:46:45.853Z,27.07
2023-02-24T05:49:23.411Z,29.00
2023-02-24T05:51:54.648Z,30.87
2023-02-24T05:54:33.197Z,27.37
2023-02-24T05:57:12.194Z,25.07
2023-02-24T05:59:43.043Z,24.10
2023-02-24T06:02:12.836Z,28.83
2023-02-24T06:04:53.748Z,22.53
2023-02-24T06:07:25.589Z,21.70
2023-02-24T06:09:56.592Z,19.20
2023-02-24T06:12:25.921Z,27.57
2023-02-24T06:14:53.034Z,19.53
2023-02-24T06:17:20.831Z,18.63
2023-02-24T06:19:50.879Z,19.47
2023-02-24T06:22:20.233Z,15.70
2023-02-24T06:24:49.194Z,22.87
2023-02-24T06:27:19.354Z,16.90
2023-02-24T06:29:50.946Z,22.33
2023-02-24T06:32:28.403Z,22.17
2023-02-24T06:34:57.116Z,17.23
2023-02-24T06:37:23.805Z,23.30
2023-02-24T06:39:51.018Z,16.93
2023-02-24T06:42:17.714Z,17.73
2023-02-24T06:44:45.304Z,20.20
2023-02-24T06:47:13.821Z,19.13
2023-02-24T06:49:42.681Z,21.23
2023-02-24T06:52:10.969Z,18.67
2023-02-24T06:54:37.695Z,21.03
2023-02-24T06:57:04.688Z,16.63
2023-02-24T06:59:32.174Z,19.97
2023-02-24T07:02:01.862Z,14.13
2023-02-24T07:04:29.193Z,19.43
2023-02-24T07:07:03.326Z,18.37
2023-02-24T07:09:31.470Z,20.60
2023-02-24T07:11:58.772Z,14.20
2023-02-24T07:14:27.892Z,17.00
2023-02-24T07:16:55.522Z,18.00
2023-02-24T07:19:25.595Z,15.70
2023-02-24T07:21:59.890Z,14.73
2023-02-24T07:24:36.216Z,17.67
2023-02-24T07:27:04.953Z,14.53
2023-02-24T07:29:33.634Z,15.00
2023-02-24T07:32:03.580Z,19.27
2023-02-24T07:34:31.176Z,20.57
2023-02-24T07:36:57.946Z,22.17
2023-02-24T07:39:25.584Z,18.50
2023-02-24T07:41:59.303Z,16.63
2023-02-24T07:44:26.187Z,13.20
2023-02-24T07:46:53.312Z,12.17
2023-02-24T07:49:25.839Z,9.93
2023-02-24T07:51:57.535Z,13.43
2023-02-24T07:54:27.216Z,12.73
2023-02-24T07:56:58.781Z,12.70
2023-02-24T07:59:28.187Z,14.00
2023-02-24T08:01:56.199Z,16.00
2023-02-24T08:04:28.992Z,12.77
2023-02-24T08:06:56.349Z,14.33
2023-02-24T08:09:52.198Z,18.13
2023-02-24T08:12:23.956Z,11.67
2023-02-24T08:14:53.352Z,20.97
2023-02-24T08:17:26.251Z,15.00
2023-02-24T08:20:13.141Z,15.13
2023-02-24T08:22:44.180Z,17.30
2023-02-24T08:25:18.136Z,14.23
2023-02-24T08:28:07.969Z,15.43
2023-02-24T08:30:38.779Z,15.33
2023-02-24T08:33:30.142Z,18.20
2023-02-24T08:36:01.972Z,14.53
2023-02-24T08:38:39.783Z,13.83
2023-02-24T08:41:11.646Z,12.60
2023-02-24T08:43:40.124Z,10.83
2023-02-24T08:46:12.506Z,13.50
2023-02-24T08:48:49.205Z,13.10
2023-02-24T08:51:23.866Z,15.43
2023-02-24T08:53:53.188Z,12.47
2023-02-24T08:56:26.500Z,13.13
2023-02-24T08:58:58.741Z,13.47
2023-02-24T09:01:34.579Z,18.83
2023-02-24T09:04:12.623Z,21.27
2023-02-24T09:07:09.680Z,16.03
2023-02-24T09:09:42.086Z,15.63
2023-02-24T09:12:12.449Z,18.20
2023-02-24T09:14:39.173Z,17.83
2023-02-24T09:17:11.168Z,12.23
2023-02-24T09:19:47.093Z,18.23
2023-02-24T09:22:21.235Z,18.27
2023-02-24T09:24:51.016Z,13.10
2023-02-24T09:27:17.889Z,18.00
2023-02-24T09:29:50.513Z,17.80
2023-02-24T09:32:17.472Z,13.50
2023-02-24T09:34:44.254Z,16.17
2023-02-24T09:37:27.161Z,12.77
2023-02-24T09:39:54.492Z,14.80
2023-02-24T09:42:23.680Z,13.80
2023-02-24T09:45:01.753Z,12.27
2023-02-24T09:47:31.292Z,13.00
2023-02-24T09:50:05.511Z,13.57
2023-02-24T09:52:41.698Z,10.73
2023-02-24T09:55:29.486Z,10.00
2023-02-24T09:58:27.019Z,7.87
2023-02-24T10:01:21.226Z,12.07
2023-02-24T10:04:14.981Z,16.03
2023-02-24T10:06:50.169Z,13.00
2023-02-24T10:09:34.485Z,10.00
2023-02-24T10:12:17.131Z,13.60
2023-02-24T10:15:19.920Z,10.40
2023-02-24T10:17:58.028Z,7.93
2023-02-24T10:20:45.613Z,12.77
2023-02-24T10:23:32.787Z,10.93
2023-02-24T10:26:31.652Z,10.73
2023-02-24T10:29:22.664Z,8.27
2023-02-24T10:31:57.720Z,9.63
2023-02-24T10:34:31.770Z,11.37
2023-02-24T10:37:27.502Z,10.63
2023-02-24T10:40:09.527Z,11.60
2023-02-24T10:42:44.467Z,10.00
2023-02-24T10:45:18.083Z,10.13
2023-02-24T10:47:56.289Z,13.60
2023-02-24T10:50:32.075Z,12.17
2023-02-24T10:53:11.462Z,11.43
2023-02-24T10:55:45.315Z,11.17
2023-02-24T10:58:56.235Z,11.77
2023-02-24T11:01:46.301Z,10.33
2023-02-24T11:04:43.965Z,8.67
2023-02-24T11:07:24.634Z,15.93
2023-02-24T11:10:11.928Z,15.20
2023-02-24T11:13:09.246Z,12.03
2023-02-24T11:15:56.937Z,15.57
2023-02-24T11:18:27.145Z,10.40
2023-02-24T11:21:05.897Z,12.17
2023-02-24T11:23:40.132Z,9.83
2023-02-24T11:26:20.709Z,11.50
2023-02-24T11:28:57.286Z,14.93
2023-02-24T11:31:39.100Z,12.00
2023-02-24T11:34:25.090Z,9.93
2023-02-24T11:37:16.182Z,9.37
2023-02-24T11:39:59.802Z,10.83
2023-02-24T11:42:43.740Z,10.73
2023-02-24T11:45:31.887Z,10.80
2023-02-24T11:48:20.913Z,9.90
2023-02-24T11:51:04.876Z,10.97
2023-02-24T11:53:42.896Z,10.90
2023-02-24T11:56:21.703Z,9.17
2023-02-24T11:58:59.977Z,9.40
2023-02-24T12:01:52.695Z,11.97
2023-02-24T12:04:53.871Z,13.17
2023-02-24T12:07:20.943Z,9.60
2023-02-24T12:10:07.000Z,15.63
2023-02-24T12:13:02.916Z,10.07
2023-02-24T12:15:37.641Z,13.33
2023-02-24T12:18:20.091Z,16.97
2023-02-24T12:21:00.422Z,10.57
2023-02-24T12:23:37.700Z,12.37
2023-02-24T12:26:16.777Z,12.93
2023-02-24T12:28:44.093Z,16.73
2023-02-24T12:31:28.201Z,11.17
2023-02-24T12:34:15.573Z,9.90
2023-02-24T12:36:51.314Z,11.00
2023-02-24T12:39:40.599Z,10.03
2023-02-24T12:42:24.575Z,12.60
2023-02-24T12:45:11.415Z,12.67
2023-02-24T12:47:53.052Z,13.53
2023-02-24T12:50:57.997Z,14.20
2023-02-24T12:54:06.605Z,14.37
2023-02-24T12:56:52.912Z,12.13
2023-02-24T12:59:25.358Z,13.33
2023-02-24T13:01:55.691Z,17.40
2023-02-24T13:04:35.403Z,13.23
2023-02-24T13:07:02.366Z,15.97
2023-02-24T13:09:37.260Z,13.23
2023-02-24T13:12:21.107Z,15.87
2023-02-24T13:14:49.250Z,13.33
2023-02-24T13:17:20.093Z,13.83
2023-02-24T13:19:47.992Z,12.57
2023-02-24T13:22:15.479Z,15.77
2023-02-24T13:24:53.867Z,12.63
2023-02-24T13:27:22.420Z,14.63
2023-02-24T13:29:52.433Z,13.03
2023-02-24T13:32:40.901Z,11.30
2023-02-24T13:35:13.884Z,10.47
2023-02-24T13:37:42.950Z,15.87
2023-02-24T13:40:16.497Z,11.10
2023-02-24T13:42:58.431Z,17.03
2023-02-24T13:45:49.472Z,10.73
2023-02-24T13:48:35.054Z,12.30
2023-02-24T13:51:14.027Z,18.47
2023-02-24T13:54:02.827Z,12.67
2023-02-24T13:56:36.087Z,13.13
2023-02-24T13:59:24.186Z,9.97
2023-02-24T14:02:10.929Z,11.03
2023-02-24T14:04:44.512Z,13.63
2023-02-24T14:07:17.130Z,7.77
2023-02-24T14:09:47.123Z,10.80
2023-02-24T14:12:18.206Z,15.07
2023-02-24T14:14:46.341Z,16.50
2023-02-24T14:17:28.904Z,11.63
2023-02-24T14:20:21.116Z,14.20
2023-02-24T14:22:53.501Z,13.10
2023-02-24T14:25:22.852Z,13.67
2023-02-24T14:27:54.744Z,12.70
2023-02-24T14:30:38.978Z,12.87
2023-02-24T14:33:08.210Z,9.37
2023-02-24T14:35:45.372Z,16.17
2023-02-24T14:39:00.457Z,10.37
2023-02-24T14:41:30.175Z,14.47
2023-02-24T14:43:56.971Z,13.87
2023-02-24T14:46:24.227Z,17.20
2023-02-24T14:48:56.371Z,14.83
2023-02-24T14:51:28.818Z,15.67
2023-02-24T14:53:59.665Z,11.57
2023-02-24T14:56:32.270Z,14.37
2023-02-24T14:59:28.017Z,10.07
2023-02-24T15:01:57.231Z,19.07
2023-02-24T15:04:43.545Z,12.03
2023-02-24T15:07:21.021Z,12.93
2023-02-24T15:09:49.281Z,8.63
2023-02-24T15:12:24.758Z,16.10
2023-02-24T15:14:55.085Z,14.27
2023-02-24T15:17:23.205Z,12.03
2023-02-24T15:19:54.567Z,14.53
2023-02-24T15:22:29.971Z,14.63
2023-02-24T15:25:15.563Z,11.93
2023-02-24T15:28:00.235Z,16.90
2023-02-24T15:30:37.694Z,13.97
2023-02-24T15:33:23.368Z,15.17
2023-02-24T15:35:59.621Z,10.30
2023-02-24T15:38:41.986Z,11.20
2023-02-24T15:41:11.075Z,16.97
2023-02-24T15:43:39.221Z,12.63
2023-02-24T15:46:28.169Z,10.30
2023-02-24T15:48:56.349Z,9.80
2023-02-24T15:51:41.796Z,12.57
2023-02-24T15:54:13.380Z,12.77
2023-02-24T15:56:41.201Z,14.17
2023-02-24T15:59:08.377Z,13.07
2023-02-24T16:01:35.604Z,16.23
2023-02-24T16:04:04.789Z,15.23
2023-02-24T16:06:32.119Z,10.43
2023-02-24T16:08:59.423Z,11.40
2023-02-24T16:11:31.612Z,12.30
2023-02-24T16:14:00.410Z,15.73
2023-02-24T16:16:27.508Z,11.83
2023-02-24T16:18:54.892Z,11.90
2023-02-24T16:21:21.692Z,15.13
2023-02-24T16:23:48.899Z,16.27
2023-02-24T16:26:18.890Z,11.47
2023-02-24T16:28:54.042Z,15.80
2023-02-24T16:31:21.982Z,15.50
2023-02-24T16:33:54.813Z,14.13
2023-02-24T16:36:24.308Z,10.43
2023-02-24T16:38:51.715Z,12.93
2023-02-24T16:41:18.799Z,12.70
2023-02-24T16:43:45.512Z,15.90
2023-02-24T16:46:18.948Z,13.70
2023-02-24T16:48:50.754Z,14.20
2023-02-24T16:51:17.472Z,12.80
2023-02-24T16:53:44.601Z,12.70
2023-02-24T16:56:12.506Z,17.17
2023-02-24T16:58:39.168Z,12.57
2023-02-24T17:01:06.507Z,15.77
2023-02-24T17:03:33.669Z,17.00
2023-02-24T17:06:00.461Z,14.57
2023-02-24T17:08:27.749Z,14.00
2023-02-24T17:10:54.899Z,12.87
2023-02-24T17:13:22.479Z,17.43
2023-02-24T17:15:55.154Z,15.30
2023-02-24T17:18:23.164Z,15.13
2023-02-24T17:20:50.208Z,15.70
2023-02-24T17:23:16.893Z,27.97
2023-02-24T17:25:44.016Z,18.03
2023-02-24T17:28:11.756Z,30.33
2023-02-24T17:30:39.556Z,133.93
2023-02-24T17:33:06.930Z,20.43
2023-02-24T17:35:34.039Z,43.70
2023-02-24T17:38:01.178Z,22.27
2023-02-24T17:40:28.065Z,33.73
2023-02-24T17:42:55.241Z,69.23
2023-02-24T17:45:21.978Z,29.37
2023-02-24T17:47:49.116Z,30.93
2023-02-24T17:50:16.898Z,17.37
2023-02-24T17:52:44.199Z,17.83
2023-02-24T17:55:11.506Z,15.13
2023-02-24T17:57:39.763Z,14.60
2023-02-24T18:00:08.493Z,14.53
2023-02-24T18:02:35.696Z,17.73
2023-02-24T18:05:02.773Z,14.47
2023-02-24T18:07:29.879Z,19.03
2023-02-24T18:09:57.156Z,14.83
2023-02-24T18:12:24.635Z,21.30
2023-02-24T18:15:02.372Z,16.57
2023-02-24T18:17:35.630Z,17.17
2023-02-24T18:20:02.827Z,19.23
2023-02-24T18:22:29.601Z,16.73
2023-02-24T18:24:56.742Z,17.00
2023-02-24T18:27:23.864Z,15.93
2023-02-24T18:29:50.934Z,15.30
2023-02-24T18:32:17.866Z,20.83
2023-02-24T18:34:45.053Z,17.00
2023-02-24T18:37:12.312Z,19.37
2023-02-24T18:39:39.413Z,19.37
2023-02-24T18:42:06.654Z,17.77
2023-02-24T18:44:33.754Z,13.47
2023-02-24T18:47:00.970Z,13.93
2023-02-24T18:49:27.811Z,21.13
2023-02-24T18:51:54.518Z,17.77
2023-02-24T18:54:21.716Z,17.83
2023-02-24T18:56:49.310Z,23.67
2023-02-24T18:59:16.100Z,15.00
2023-02-24T19:01:43.324Z,22.00
2023-02-24T19:04:11.579Z,22.23
2023-02-24T19:06:38.651Z,19.70
2023-02-24T19:09:10.768Z,17.13
2023-02-24T19:11:39.463Z,15.77
2023-02-24T19:14:06.921Z,19.90
2023-02-24T19:16:34.374Z,19.73
2023-02-24T19:19:01.264Z,20.03
2023-02-24T19:21:30.083Z,16.33
2023-02-24T19:24:00.242Z,11.50
2023-02-24T19:26:27.960Z,7.20
2023-02-24T19:28:55.153Z,4.70
2023-02-24T19:31:24.829Z,6.77
2023-02-24T19:33:56.755Z,10.70
2023-02-24T19:36:24.466Z,9.20
2023-02-24T19:38:51.919Z,12.20
2023-02-24T19:41:18.743Z,12.63
2023-02-24T19:43:45.917Z,5.53
2023-02-24T19:46:14.955Z,6.97
2023-02-24T19:48:42.381Z,6.83
2023-02-24T19:51:09.668Z,9.10
2023-02-24T19:53:36.550Z,8.10
2023-02-24T19:56:03.726Z,12.17
2023-02-24T19:58:31.029Z,11.37
2023-02-24T20:01:13.834Z,17.93
2023-02-24T20:03:42.530Z,14.13
2023-02-24T20:06:31.430Z,8.43
2023-02-24T20:08:59.073Z,11.10
2023-02-24T20:11:25.928Z,12.83
2023-02-24T20:13:53.325Z,8.80
2023-02-24T20:16:23.747Z,9.27
2023-02-24T20:18:51.466Z,8.83
2023-02-24T20:21:18.595Z,12.83
2023-02-24T20:23:45.666Z,10.47
2023-02-24T20:26:16.365Z,8.43
2023-02-24T20:28:44.457Z,8.67
2023-02-24T20:31:15.903Z,7.33
2023-02-24T20:33:43.882Z,13.40
2023-02-24T20:36:12.959Z,9.07
2023-02-24T20:38:39.733Z,11.40
2023-02-24T20:41:06.859Z,10.80
2023-02-24T20:43:34.091Z,13.43
2023-02-24T20:46:24.277Z,11.53
2023-02-24T20:48:52.385Z,12.97
2023-02-24T20:51:19.289Z,8.77
2023-02-24T20:53:56.567Z,12.17
2023-02-24T20:56:29.727Z,6.77
2023-02-24T20:59:01.961Z,13.53
2023-02-24T21:01:30.434Z,11.37
2023-02-24T21:03:57.608Z,13.80
2023-02-24T21:06:25.350Z,10.70
2023-02-24T21:08:55.872Z,15.13
2023-02-24T21:11:23.563Z,14.03
2023-02-24T21:13:51.334Z,19.10
2023-02-24T21:16:19.724Z,15.77
2023-02-24T21:18:48.203Z,13.63
2023-02-24T21:21:15.612Z,12.20
2023-02-24T21:23:43.060Z,9.87
2023-02-24T21:26:10.557Z,9.97
2023-02-24T21:28:37.727Z,10.23
2023-02-24T21:31:09.429Z,12.63
2023-02-24T21:33:36.786Z,14.50
2023-02-24T21:36:10.816Z,12.10
2023-02-24T21:38:38.108Z,12.47
2023-02-24T21:41:08.997Z,9.87
2023-02-24T21:43:37.655Z,17.70
2023-02-24T21:46:05.907Z,15.50
2023-02-24T21:48:35.889Z,9.07
2023-02-24T21:51:09.473Z,8.07
2023-02-24T21:53:39.180Z,11.07
2023-02-24T21:56:17.498Z,8.37
2023-02-24T21:59:05.840Z,10.40
2023-02-24T22:01:35.733Z,13.93
2023-02-24T22:04:05.701Z,10.77
2023-02-24T22:06:34.703Z,8.77
2023-02-24T22:09:03.048Z,14.23
2023-02-24T22:11:32.628Z,12.23
2023-02-24T22:13:59.340Z,11.77
2023-02-24T22:16:27.066Z,10.23
2023-02-24T22:18:55.263Z,12.30
2023-02-24T22:21:24.457Z,11.77
2023-02-24T22:23:54.420Z,17.93
2023-02-24T22:26:23.584Z,15.40
2023-02-24T22:28:51.043Z,11.50
2023-02-24T22:31:20.786Z,15.73
2023-02-24T22:33:48.864Z,13.77
2023-02-24T22:36:29.636Z,13.50
2023-02-24T22:38:58.199Z,11.93
2023-02-24T22:41:28.704Z,14.80
2023-02-24T22:43:55.934Z,13.13
2023-02-24T22:46:28.492Z,15.87
2023-02-24T22:48:56.085Z,10.57
2023-02-24T22:51:24.111Z,14.97
2023-02-24T22:53:51.431Z,16.53
2023-02-24T22:56:22.183Z,17.03
2023-02-24T22:58:49.762Z,13.77
2023-02-24T23:01:19.978Z,14.73
2023-02-24T23:03:47.184Z,13.40
2023-02-24T23:06:17.202Z,13.93
2023-02-24T23:08:46.390Z,12.00
2023-02-24T23:11:18.472Z,15.30
2023-02-24T23:13:47.827Z,17.40
2023-02-24T23:16:18.592Z,19.87
2023-02-24T23:18:50.887Z,14.53
2023-02-24T23:21:22.223Z,16.90
2023-02-24T23:23:50.222Z,15.60
2023-02-24T23:26:17.988Z,18.10
2023-02-24T23:28:44.807Z,17.30
2023-02-24T23:31:18.783Z,15.67
2023-02-24T23:33:46.015Z,19.07
2023-02-24T23:36:13.067Z,19.57
2023-02-24T23:38:39.797Z,14.17
2023-02-24T23:41:11.141Z,20.80
2023-02-24T23:43:38.839Z,16.87
2023-02-24T23:46:08.422Z,16.27
2023-02-24T23:48:36.201Z,21.27
2023-02-24T23:51:07.797Z,20.70
2023-02-24T23:53:42.438Z,13.73
2023-02-24T23:56:16.236Z,13.07
2023-02-24T23:58:43.740Z,13.63
